sensor_id;sensor_type;location;lat;lon;timestamp;pressure;altitude;pressure_sealevel;temperature;humidity
84049;BME280;74136;51.684;7.862;2024-03-02T00:01:11;99506.69;;;6.49;71.27
84049;BME280;74136;51.684;7.862;2024-03-02T00:03:38;99503.13;;;6.48;71.64
84049;BME280;74136;51.684;7.862;2024-03-02T00:06:04;99499.56;;;6.48;71.72
84049;BME280;74136;51.684;7.862;2024-03-02T00:08:30;99499.19;;;6.44;71.73
84049;BME280;74136;51.684;7.862;2024-03-02T00:10:58;99502.97;;;6.43;71.82
84049;BME280;74136;51.684;7.862;2024-03-02T00:13:25;99498.81;;;6.41;71.98
84049;BME280;74136;51.684;7.862;2024-03-02T00:15:54;99494.31;;;6.35;72.19
84049;BME280;74136;51.684;7.862;2024-03-02T00:18:26;99498.56;;;6.31;72.15
84049;BME280;74136;51.684;7.862;2024-03-02T00:20:56;99503.31;;;6.24;72.50
84049;BME280;74136;51.684;7.862;2024-03-02T00:23:24;99500.09;;;6.15;72.51
84049;BME280;74136;51.684;7.862;2024-03-02T00:25:54;99506.75;;;6.07;72.82
84049;BME280;74136;51.684;7.862;2024-03-02T00:28:25;99506.81;;;6.01;73.40
84049;BME280;74136;51.684;7.862;2024-03-02T00:31:03;99504.44;;;5.93;73.18
84049;BME280;74136;51.684;7.862;2024-03-02T00:35:58;99521.34;;;5.83;73.67
84049;BME280;74136;51.684;7.862;2024-03-02T00:38:26;99514.69;;;5.79;74.04
84049;BME280;74136;51.684;7.862;2024-03-02T00:40:53;99516.81;;;5.77;73.81
84049;BME280;74136;51.684;7.862;2024-03-02T00:46:13;99509.16;;;5.67;74.40
84049;BME280;74136;51.684;7.862;2024-03-02T00:48:57;99518.66;;;5.65;74.49
84049;BME280;74136;51.684;7.862;2024-03-02T00:51:26;99506.78;;;5.59;74.66
84049;BME280;74136;51.684;7.862;2024-03-02T00:53:54;99508.44;;;5.60;75.21
84049;BME280;74136;51.684;7.862;2024-03-02T00:56:23;99504.88;;;5.60;74.99
84049;BME280;74136;51.684;7.862;2024-03-02T00:58:50;99509.06;;;5.62;75.04
84049;BME280;74136;51.684;7.862;2024-03-02T01:03:15;99500.59;;;5.64;75.20
84049;BME280;74136;51.684;7.862;2024-03-02T01:05:42;99501.44;;;5.64;75.41
84049;BME280;74136;51.684;7.862;2024-03-02T01:08:10;99497.41;;;5.67;74.82
84049;BME280;74136;51.684;7.862;2024-03-02T01:10:36;99498.19;;;5.74;74.88
84049;BME280;74136;51.684;7.862;2024-03-02T01:13:03;99492.13;;;5.72;75.04
84049;BME280;74136;51.684;7.862;2024-03-02T01:15:29;99491.88;;;5.73;74.64
84049;BME280;74136;51.684;7.862;2024-03-02T01:17:55;99492.78;;;5.67;74.66
84049;BME280;74136;51.684;7.862;2024-03-02T01:20:21;99485.06;;;5.64;74.75
84049;BME280;74136;51.684;7.862;2024-03-02T01:22:48;99496.47;;;5.61;75.08
84049;BME280;74136;51.684;7.862;2024-03-02T01:25:14;99488.13;;;5.56;74.67
84049;BME280;74136;51.684;7.862;2024-03-02T01:27:41;99488.97;;;5.57;74.87
84049;BME280;74136;51.684;7.862;2024-03-02T01:30:08;99487.91;;;5.58;74.98
84049;BME280;74136;51.684;7.862;2024-03-02T01:32:34;99479.09;;;5.56;74.95
84049;BME280;74136;51.684;7.862;2024-03-02T01:35:00;99472.59;;;5.57;74.60
84049;BME280;74136;51.684;7.862;2024-03-02T01:37:26;99475.69;;;5.60;74.88
84049;BME280;74136;51.684;7.862;2024-03-02T01:39:52;99463.13;;;5.59;74.59
84049;BME280;74136;51.684;7.862;2024-03-02T01:42:19;99467.50;;;5.60;74.41
84049;BME280;74136;51.684;7.862;2024-03-02T01:44:45;99462.88;;;5.61;74.41
84049;BME280;74136;51.684;7.862;2024-03-02T01:47:11;99457.06;;;5.57;74.15
84049;BME280;74136;51.684;7.862;2024-03-02T01:49:37;99444.69;;;5.55;74.60
84049;BME280;74136;51.684;7.862;2024-03-02T01:52:05;99448.84;;;5.57;74.11
84049;BME280;74136;51.684;7.862;2024-03-02T01:54:34;99446.81;;;5.53;74.14
84049;BME280;74136;51.684;7.862;2024-03-02T01:57:00;99441.84;;;5.49;74.00
84049;BME280;74136;51.684;7.862;2024-03-02T01:59:27;99447.91;;;5.52;74.19
84049;BME280;74136;51.684;7.862;2024-03-02T02:01:53;99444.91;;;5.53;74.48
84049;BME280;74136;51.684;7.862;2024-03-02T02:04:19;99434.75;;;5.60;74.13
84049;BME280;74136;51.684;7.862;2024-03-02T02:06:49;99431.31;;;5.65;73.85
84049;BME280;74136;51.684;7.862;2024-03-02T02:09:15;99431.09;;;5.66;74.07
84049;BME280;74136;51.684;7.862;2024-03-02T02:11:41;99436.53;;;5.66;73.60
84049;BME280;74136;51.684;7.862;2024-03-02T02:14:07;99430.47;;;5.64;73.88
84049;BME280;74136;51.684;7.862;2024-03-02T02:16:33;99426.34;;;5.62;73.75
84049;BME280;74136;51.684;7.862;2024-03-02T02:18:59;99429.06;;;5.62;73.97
84049;BME280;74136;51.684;7.862;2024-03-02T02:21:26;99430.59;;;5.58;73.96
84049;BME280;74136;51.684;7.862;2024-03-02T02:23:53;99419.31;;;5.54;73.45
84049;BME280;74136;51.684;7.862;2024-03-02T02:26:19;99414.78;;;5.48;74.35
84049;BME280;74136;51.684;7.862;2024-03-02T02:28:45;99423.19;;;5.46;74.08
84049;BME280;74136;51.684;7.862;2024-03-02T02:31:14;99422.25;;;5.41;74.78
84049;BME280;74136;51.684;7.862;2024-03-02T02:33:41;99420.19;;;5.36;74.80
84049;BME280;74136;51.684;7.862;2024-03-02T02:36:08;99420.03;;;5.31;75.05
84049;BME280;74136;51.684;7.862;2024-03-02T02:38:36;99423.25;;;5.28;75.23
84049;BME280;74136;51.684;7.862;2024-03-02T02:41:04;99423.09;;;5.23;75.36
84049;BME280;74136;51.684;7.862;2024-03-02T02:43:30;99426.28;;;5.20;75.47
84049;BME280;74136;51.684;7.862;2024-03-02T02:45:56;99422.00;;;5.12;75.70
84049;BME280;74136;51.684;7.862;2024-03-02T02:48:22;99417.25;;;5.08;76.02
84049;BME280;74136;51.684;7.862;2024-03-02T02:50:48;99411.63;;;5.03;75.79
84049;BME280;74136;51.684;7.862;2024-03-02T02:53:15;99414.47;;;4.96;75.85
84049;BME280;74136;51.684;7.862;2024-03-02T02:55:41;99412.19;;;4.93;76.51
84049;BME280;74136;51.684;7.862;2024-03-02T02:58:09;99419.97;;;4.90;76.25
84049;BME280;74136;51.684;7.862;2024-03-02T03:00:35;99420.81;;;4.90;77.13
84049;BME280;74136;51.684;7.862;2024-03-02T03:03:02;99408.94;;;4.85;76.32
84049;BME280;74136;51.684;7.862;2024-03-02T03:05:28;99414.63;;;4.83;76.61
84049;BME280;74136;51.684;7.862;2024-03-02T03:07:54;99396.63;;;4.64;76.60
84049;BME280;74136;51.684;7.862;2024-03-02T03:10:21;99417.25;;;4.71;76.99
84049;BME280;74136;51.684;7.862;2024-03-02T03:12:49;99419.38;;;4.69;76.91
84049;BME280;74136;51.684;7.862;2024-03-02T03:15:15;99419.00;;;4.66;76.53
84049;BME280;74136;51.684;7.862;2024-03-02T03:17:42;99410.81;;;4.66;77.70
84049;BME280;74136;51.684;7.862;2024-03-02T03:20:08;99413.53;;;4.66;77.64
84049;BME280;74136;51.684;7.862;2024-03-02T03:22:38;99407.66;;;4.69;77.35
84049;BME280;74136;51.684;7.862;2024-03-02T03:25:05;99404.59;;;4.77;77.79
84049;BME280;74136;51.684;7.862;2024-03-02T03:27:31;99406.97;;;4.73;77.03
84049;BME280;74136;51.684;7.862;2024-03-02T03:29:58;99421.06;;;4.70;77.42
84049;BME280;74136;51.684;7.862;2024-03-02T03:32:24;99413.31;;;4.67;77.36
84049;BME280;74136;51.684;7.862;2024-03-02T03:34:50;99411.66;;;4.66;77.53
84049;BME280;74136;51.684;7.862;2024-03-02T03:37:17;99415.22;;;4.67;76.85
84049;BME280;74136;51.684;7.862;2024-03-02T03:39:43;99417.56;;;4.63;77.58
84049;BME280;74136;51.684;7.862;2024-03-02T03:42:09;99408.19;;;4.59;77.45
84049;BME280;74136;51.684;7.862;2024-03-02T03:44:35;99411.28;;;4.63;77.88
84049;BME280;74136;51.684;7.862;2024-03-02T03:47:01;99417.09;;;4.66;77.92
84049;BME280;74136;51.684;7.862;2024-03-02T03:49:28;99409.44;;;4.75;77.15
84049;BME280;74136;51.684;7.862;2024-03-02T03:51:54;99405.09;;;4.74;76.84
84049;BME280;74136;51.684;7.862;2024-03-02T03:54:21;99401.97;;;4.70;77.20
84049;BME280;74136;51.684;7.862;2024-03-02T03:56:47;99406.19;;;4.66;77.38
84049;BME280;74136;51.684;7.862;2024-03-02T03:59:13;99409.53;;;4.68;77.40
84049;BME280;74136;51.684;7.862;2024-03-02T04:01:39;99413.41;;;4.61;77.15
84049;BME280;74136;51.684;7.862;2024-03-02T04:04:05;99412.88;;;4.52;77.52
84049;BME280;74136;51.684;7.862;2024-03-02T04:06:32;99414.00;;;4.45;77.50
84049;BME280;74136;51.684;7.862;2024-03-02T04:08:59;99425.94;;;4.44;77.70
84049;BME280;74136;51.684;7.862;2024-03-02T04:11:25;99430.41;;;4.38;77.95
84049;BME280;74136;51.684;7.862;2024-03-02T04:13:51;99433.78;;;4.33;78.78
84049;BME280;74136;51.684;7.862;2024-03-02T04:16:17;99427.16;;;4.29;78.95
84049;BME280;74136;51.684;7.862;2024-03-02T04:18:43;99433.44;;;4.30;78.91
84049;BME280;74136;51.684;7.862;2024-03-02T04:21:10;99432.59;;;4.29;78.66
84049;BME280;74136;51.684;7.862;2024-03-02T04:23:36;99434.50;;;4.29;78.35
84049;BME280;74136;51.684;7.862;2024-03-02T04:26:02;99435.97;;;4.25;78.88
84049;BME280;74136;51.684;7.862;2024-03-02T04:28:28;99430.97;;;4.22;79.28
84049;BME280;74136;51.684;7.862;2024-03-02T04:30:55;99432.66;;;4.23;79.44
84049;BME280;74136;51.684;7.862;2024-03-02T04:33:21;99441.59;;;4.30;79.00
84049;BME280;74136;51.684;7.862;2024-03-02T04:35:47;99440.06;;;4.34;79.00
84049;BME280;74136;51.684;7.862;2024-03-02T04:38:13;99445.53;;;4.34;78.91
84049;BME280;74136;51.684;7.862;2024-03-02T04:40:39;99441.75;;;4.35;79.05
84049;BME280;74136;51.684;7.862;2024-03-02T04:43:06;99439.25;;;4.33;78.81
84049;BME280;74136;51.684;7.862;2024-03-02T04:45:32;99437.34;;;4.34;78.75
84049;BME280;74136;51.684;7.862;2024-03-02T04:47:58;99432.31;;;4.37;79.10
84049;BME280;74136;51.684;7.862;2024-03-02T04:50:24;99440.25;;;4.39;79.24
84049;BME280;74136;51.684;7.862;2024-03-02T04:52:50;99438.28;;;4.46;79.07
84049;BME280;74136;51.684;7.862;2024-03-02T04:55:17;99446.41;;;4.53;78.53
84049;BME280;74136;51.684;7.862;2024-03-02T04:57:55;99457.63;;;4.63;78.53
84049;BME280;74136;51.684;7.862;2024-03-02T05:02:47;99460.34;;;4.63;78.35
84049;BME280;74136;51.684;7.862;2024-03-02T05:05:13;99463.94;;;4.57;77.83
84049;BME280;74136;51.684;7.862;2024-03-02T05:07:41;99470.44;;;4.56;78.44
84049;BME280;74136;51.684;7.862;2024-03-02T05:10:10;99466.06;;;4.55;78.38
84049;BME280;74136;51.684;7.862;2024-03-02T05:12:40;99467.94;;;4.54;78.07
84049;BME280;74136;51.684;7.862;2024-03-02T05:15:09;99463.28;;;4.61;78.17
84049;BME280;74136;51.684;7.862;2024-03-02T05:17:36;99458.88;;;4.60;78.32
84049;BME280;74136;51.684;7.862;2024-03-02T05:20:06;99462.00;;;4.64;78.28
84049;BME280;74136;51.684;7.862;2024-03-02T05:22:37;99457.31;;;4.71;77.59
84049;BME280;74136;51.684;7.862;2024-03-02T05:25:04;99458.50;;;4.75;78.08
84049;BME280;74136;51.684;7.862;2024-03-02T05:27:30;99466.19;;;4.85;77.51
84049;BME280;74136;51.684;7.862;2024-03-02T05:29:59;99465.03;;;4.92;77.29
84049;BME280;74136;51.684;7.862;2024-03-02T05:32:25;99469.34;;;5.00;77.13
84049;BME280;74136;51.684;7.862;2024-03-02T05:34:51;99467.84;;;5.04;77.11
84049;BME280;74136;51.684;7.862;2024-03-02T05:37:18;99469.84;;;5.08;76.95
84049;BME280;74136;51.684;7.862;2024-03-02T05:39:44;99477.47;;;5.06;76.70
84049;BME280;74136;51.684;7.862;2024-03-02T05:42:10;99485.25;;;5.03;76.12
84049;BME280;74136;51.684;7.862;2024-03-02T05:44:36;99485.34;;;4.96;76.41
84049;BME280;74136;51.684;7.862;2024-03-02T05:47:03;99490.63;;;4.91;77.16
84049;BME280;74136;51.684;7.862;2024-03-02T05:49:29;99500.16;;;4.82;77.62
84049;BME280;74136;51.684;7.862;2024-03-02T05:51:56;99497.97;;;4.72;77.86
84049;BME280;74136;51.684;7.862;2024-03-02T05:54:22;99494.69;;;4.64;78.11
84049;BME280;74136;51.684;7.862;2024-03-02T05:56:48;99489.47;;;4.62;77.80
84049;BME280;74136;51.684;7.862;2024-03-02T05:59:14;99492.41;;;4.61;77.73
84049;BME280;74136;51.684;7.862;2024-03-02T06:01:43;99493.47;;;4.60;78.09
84049;BME280;74136;51.684;7.862;2024-03-02T06:04:10;99491.59;;;4.60;78.51
84049;BME280;74136;51.684;7.862;2024-03-02T06:06:40;99484.03;;;4.62;78.41
84049;BME280;74136;51.684;7.862;2024-03-02T06:09:06;99484.88;;;4.63;78.42
84049;BME280;74136;51.684;7.862;2024-03-02T06:11:39;99488.41;;;4.63;77.96
84049;BME280;74136;51.684;7.862;2024-03-02T06:14:07;99484.91;;;4.56;78.72
84049;BME280;74136;51.684;7.862;2024-03-02T06:16:34;99492.41;;;4.61;79.00
84049;BME280;74136;51.684;7.862;2024-03-02T06:19:00;99503.31;;;4.61;78.32
84049;BME280;74136;51.684;7.862;2024-03-02T06:21:27;99504.50;;;4.65;78.36
84049;BME280;74136;51.684;7.862;2024-03-02T06:23:54;99502.19;;;4.68;78.63
84049;BME280;74136;51.684;7.862;2024-03-02T06:26:20;99505.44;;;4.77;78.28
84049;BME280;74136;51.684;7.862;2024-03-02T06:28:46;99506.06;;;4.79;78.37
84049;BME280;74136;51.684;7.862;2024-03-02T06:31:12;99515.91;;;4.80;77.58
84049;BME280;74136;51.684;7.862;2024-03-02T06:33:39;99505.41;;;4.84;77.67
84049;BME280;74136;51.684;7.862;2024-03-02T06:36:06;99509.41;;;4.81;77.87
84049;BME280;74136;51.684;7.862;2024-03-02T06:38:35;99507.13;;;4.78;78.03
84049;BME280;74136;51.684;7.862;2024-03-02T06:41:01;99510.44;;;4.80;77.90
84049;BME280;74136;51.684;7.862;2024-03-02T06:43:28;99514.22;;;4.79;77.64
84049;BME280;74136;51.684;7.862;2024-03-02T06:45:54;99512.97;;;4.82;77.97
84049;BME280;74136;51.684;7.862;2024-03-02T06:48:21;99509.94;;;4.90;78.01
84049;BME280;74136;51.684;7.862;2024-03-02T06:50:47;99515.25;;;5.03;77.81
84049;BME280;74136;51.684;7.862;2024-03-02T06:53:13;99519.94;;;5.14;77.08
84049;BME280;74136;51.684;7.862;2024-03-02T06:55:40;99517.38;;;5.19;76.94
84049;BME280;74136;51.684;7.862;2024-03-02T06:58:06;99515.44;;;5.20;76.73
84049;BME280;74136;51.684;7.862;2024-03-02T07:00:32;99519.84;;;5.21;77.29
84049;BME280;74136;51.684;7.862;2024-03-02T07:02:58;99516.44;;;5.25;77.08
84049;BME280;74136;51.684;7.862;2024-03-02T07:05:25;99517.66;;;5.29;76.61
84049;BME280;74136;51.684;7.862;2024-03-02T07:07:51;99517.66;;;5.29;76.69
84049;BME280;74136;51.684;7.862;2024-03-02T07:10:17;99515.06;;;5.34;77.16
84049;BME280;74136;51.684;7.862;2024-03-02T07:12:43;99516.06;;;5.40;76.93
84049;BME280;74136;51.684;7.862;2024-03-02T07:15:10;99511.78;;;5.44;77.17
84049;BME280;74136;51.684;7.862;2024-03-02T07:17:47;99518.38;;;5.55;77.16
84049;BME280;74136;51.684;7.862;2024-03-02T07:20:13;99518.81;;;5.70;76.92
84049;BME280;74136;51.684;7.862;2024-03-02T07:22:40;99520.81;;;5.93;76.57
84049;BME280;74136;51.684;7.862;2024-03-02T07:25:06;99526.97;;;6.18;75.76
84049;BME280;74136;51.684;7.862;2024-03-02T07:27:33;99522.59;;;6.40;75.08
84049;BME280;74136;51.684;7.862;2024-03-02T07:30:04;99520.13;;;6.62;74.44
84049;BME280;74136;51.684;7.862;2024-03-02T07:32:30;99527.13;;;6.81;74.24
84049;BME280;74136;51.684;7.862;2024-03-02T07:34:56;99526.75;;;7.01;74.03
84049;BME280;74136;51.684;7.862;2024-03-02T07:37:23;99529.34;;;7.19;73.05
84049;BME280;74136;51.684;7.862;2024-03-02T07:39:50;99528.38;;;7.37;72.45
84049;BME280;74136;51.684;7.862;2024-03-02T07:42:17;99538.31;;;7.55;71.98
84049;BME280;74136;51.684;7.862;2024-03-02T07:44:46;99539.06;;;7.79;71.90
84049;BME280;74136;51.684;7.862;2024-03-02T07:47:12;99532.41;;;8.03;70.88
84049;BME280;74136;51.684;7.862;2024-03-02T07:49:39;99535.63;;;8.28;70.91
84049;BME280;74136;51.684;7.862;2024-03-02T07:52:05;99547.78;;;8.49;69.79
84049;BME280;74136;51.684;7.862;2024-03-02T07:54:31;99546.94;;;8.65;68.91
84049;BME280;74136;51.684;7.862;2024-03-02T07:56:57;99547.34;;;8.74;68.49
84049;BME280;74136;51.684;7.862;2024-03-02T07:59:24;99550.78;;;8.81;68.52
84049;BME280;74136;51.684;7.862;2024-03-02T08:01:50;99548.69;;;8.88;68.13
84049;BME280;74136;51.684;7.862;2024-03-02T08:04:17;99540.63;;;8.82;66.51
84049;BME280;74136;51.684;7.862;2024-03-02T08:06:45;99549.00;;;8.92;66.56
84049;BME280;74136;51.684;7.862;2024-03-02T08:09:11;99556.06;;;9.04;66.65
84049;BME280;74136;51.684;7.862;2024-03-02T08:11:37;99562.78;;;9.13;67.22
84049;BME280;74136;51.684;7.862;2024-03-02T08:14:03;99552.88;;;9.12;66.46
84049;BME280;74136;51.684;7.862;2024-03-02T08:16:29;99557.34;;;9.19;66.24
84049;BME280;74136;51.684;7.862;2024-03-02T08:18:56;99546.47;;;9.24;66.20
84049;BME280;74136;51.684;7.862;2024-03-02T08:21:25;99547.63;;;9.28;66.45
84049;BME280;74136;51.684;7.862;2024-03-02T08:23:51;99552.84;;;9.29;66.39
84049;BME280;74136;51.684;7.862;2024-03-02T08:26:18;99557.00;;;9.32;66.50
84049;BME280;74136;51.684;7.862;2024-03-02T08:28:44;99562.75;;;9.30;65.99
84049;BME280;74136;51.684;7.862;2024-03-02T08:31:11;99557.81;;;9.32;64.89
84049;BME280;74136;51.684;7.862;2024-03-02T08:33:37;99556.28;;;9.41;65.58
84049;BME280;74136;51.684;7.862;2024-03-02T08:36:05;99559.44;;;9.50;65.25
84049;BME280;74136;51.684;7.862;2024-03-02T08:38:31;99561.75;;;9.58;65.24
84049;BME280;74136;51.684;7.862;2024-03-02T08:40:58;99560.00;;;9.74;64.48
84049;BME280;74136;51.684;7.862;2024-03-02T08:43:24;99564.03;;;9.88;64.35
84049;BME280;74136;51.684;7.862;2024-03-02T08:45:51;99558.66;;;9.98;64.64
84049;BME280;74136;51.684;7.862;2024-03-02T08:48:17;99563.28;;;9.93;63.94
84049;BME280;74136;51.684;7.862;2024-03-02T08:50:43;99563.53;;;9.91;63.38
84049;BME280;74136;51.684;7.862;2024-03-02T08:53:10;99569.06;;;9.96;63.18
84049;BME280;74136;51.684;7.862;2024-03-02T08:55:36;99566.50;;;10.11;63.60
84049;BME280;74136;51.684;7.862;2024-03-02T08:58:02;99570.78;;;10.24;63.02
84049;BME280;74136;51.684;7.862;2024-03-02T09:00:29;99576.97;;;10.36;62.62
84049;BME280;74136;51.684;7.862;2024-03-02T09:02:55;99572.84;;;10.39;62.85
84049;BME280;74136;51.684;7.862;2024-03-02T09:05:21;99579.66;;;10.31;62.26
84049;BME280;74136;51.684;7.862;2024-03-02T09:07:47;99579.16;;;10.39;63.08
84049;BME280;74136;51.684;7.862;2024-03-02T09:10:14;99576.22;;;10.46;63.15
84049;BME280;74136;51.684;7.862;2024-03-02T09:12:40;99582.56;;;10.46;62.48
84049;BME280;74136;51.684;7.862;2024-03-02T09:15:07;99582.31;;;10.48;62.67
84049;BME280;74136;51.684;7.862;2024-03-02T09:17:33;99579.00;;;10.51;62.92
84049;BME280;74136;51.684;7.862;2024-03-02T09:20:00;99580.66;;;10.52;63.10
84049;BME280;74136;51.684;7.862;2024-03-02T09:22:26;99582.03;;;10.49;62.70
84049;BME280;74136;51.684;7.862;2024-03-02T09:24:52;99582.91;;;10.55;62.86
84049;BME280;74136;51.684;7.862;2024-03-02T09:27:18;99580.06;;;10.77;61.65
84049;BME280;74136;51.684;7.862;2024-03-02T09:29:45;99591.41;;;10.80;62.42
84049;BME280;74136;51.684;7.862;2024-03-02T09:32:14;99585.41;;;10.88;61.50
84049;BME280;74136;51.684;7.862;2024-03-02T09:34:40;99587.84;;;10.85;62.26
84049;BME280;74136;51.684;7.862;2024-03-02T09:37:07;99584.06;;;10.91;61.69
84049;BME280;74136;51.684;7.862;2024-03-02T09:39:33;99582.13;;;10.91;61.11
84049;BME280;74136;51.684;7.862;2024-03-02T09:42:00;99584.34;;;10.94;61.86
84049;BME280;74136;51.684;7.862;2024-03-02T09:44:27;99572.84;;;11.03;61.36
84049;BME280;74136;51.684;7.862;2024-03-02T09:46:53;99569.84;;;11.04;61.40
84049;BME280;74136;51.684;7.862;2024-03-02T09:49:19;99573.50;;;11.15;61.58
84049;BME280;74136;51.684;7.862;2024-03-02T09:51:49;99559.28;;;11.33;59.31
84049;BME280;74136;51.684;7.862;2024-03-02T09:54:16;99561.81;;;11.45;60.24
84049;BME280;74136;51.684;7.862;2024-03-02T09:56:42;99558.25;;;11.44;60.04
84049;BME280;74136;51.684;7.862;2024-03-02T09:59:08;99557.16;;;11.50;60.57
84049;BME280;74136;51.684;7.862;2024-03-02T10:01:34;99555.50;;;11.49;61.43
84049;BME280;74136;51.684;7.862;2024-03-02T10:04:01;99553.34;;;11.56;59.74
84049;BME280;74136;51.684;7.862;2024-03-02T10:06:30;99557.75;;;11.62;60.19
84049;BME280;74136;51.684;7.862;2024-03-02T10:08:56;99551.19;;;11.68;58.90
84049;BME280;74136;51.684;7.862;2024-03-02T10:11:29;99548.97;;;11.65;59.91
84049;BME280;74136;51.684;7.862;2024-03-02T10:14:09;99555.06;;;11.73;60.06
84049;BME280;74136;51.684;7.862;2024-03-02T10:16:37;99549.38;;;11.89;59.17
84049;BME280;74136;51.684;7.862;2024-03-02T10:19:23;99550.78;;;11.92;59.55
84049;BME280;74136;51.684;7.862;2024-03-02T10:21:51;99541.94;;;11.95;60.36
84049;BME280;74136;51.684;7.862;2024-03-02T10:24:21;99549.97;;;12.07;58.65
84049;BME280;74136;51.684;7.862;2024-03-02T10:26:49;99550.81;;;12.17;58.12
84049;BME280;74136;51.684;7.862;2024-03-02T10:29:15;99551.13;;;12.26;58.19
84049;BME280;74136;51.684;7.862;2024-03-02T10:31:44;99548.38;;;12.26;57.64
84049;BME280;74136;51.684;7.862;2024-03-02T10:34:14;99553.63;;;12.32;58.62
84049;BME280;74136;51.684;7.862;2024-03-02T10:36:43;99553.31;;;12.29;57.20
84049;BME280;74136;51.684;7.862;2024-03-02T10:39:12;99556.66;;;12.36;57.54
84049;BME280;74136;51.684;7.862;2024-03-02T10:41:39;99555.00;;;12.40;57.23
84049;BME280;74136;51.684;7.862;2024-03-02T10:44:07;99558.03;;;12.38;56.84
84049;BME280;74136;51.684;7.862;2024-03-02T10:46:36;99548.38;;;12.36;57.54
84049;BME280;74136;51.684;7.862;2024-03-02T10:49:04;99553.91;;;12.41;58.46
84049;BME280;74136;51.684;7.862;2024-03-02T10:51:33;99543.97;;;12.45;56.95
84049;BME280;74136;51.684;7.862;2024-03-02T10:54:00;99548.13;;;12.48;56.82
84049;BME280;74136;51.684;7.862;2024-03-02T10:56:29;99543.97;;;12.50;56.45
84049;BME280;74136;51.684;7.862;2024-03-02T10:59:06;99531.00;;;12.46;56.63
84049;BME280;74136;51.684;7.862;2024-03-02T11:01:38;99534.59;;;12.41;56.32
84049;BME280;74136;51.684;7.862;2024-03-02T11:04:08;99538.44;;;12.50;57.26
84049;BME280;74136;51.684;7.862;2024-03-02T11:06:35;99534.31;;;12.63;56.81
84049;BME280;74136;51.684;7.862;2024-03-02T11:09:06;99529.06;;;12.71;57.27
84049;BME280;74136;51.684;7.862;2024-03-02T11:11:37;99538.75;;;12.79;57.10
84049;BME280;74136;51.684;7.862;2024-03-02T11:14:07;99545.09;;;12.74;56.14
84049;BME280;74136;51.684;7.862;2024-03-02T11:16:37;99538.19;;;12.77;56.20
84049;BME280;74136;51.684;7.862;2024-03-02T11:19:06;99535.69;;;12.70;56.34
84049;BME280;74136;51.684;7.862;2024-03-02T11:21:36;99534.88;;;12.85;56.60
84049;BME280;74136;51.684;7.862;2024-03-02T11:26:47;99533.47;;;13.13;54.83
84049;BME280;74136;51.684;7.862;2024-03-02T11:32:06;99543.16;;;13.21;55.29
84049;BME280;74136;51.684;7.862;2024-03-02T11:34:36;99540.38;;;13.21;54.68
84049;BME280;74136;51.684;7.862;2024-03-02T11:37:05;99537.06;;;13.19;54.26
84049;BME280;74136;51.684;7.862;2024-03-02T11:39:31;99534.31;;;13.24;54.89
84049;BME280;74136;51.684;7.862;2024-03-02T11:41:58;99535.09;;;13.29;54.57
84049;BME280;74136;51.684;7.862;2024-03-02T11:44:26;99535.06;;;13.39;54.60
84049;BME280;74136;51.684;7.862;2024-03-02T11:47:02;99530.66;;;13.43;54.45
84049;BME280;74136;51.684;7.862;2024-03-02T11:50:03;99521.50;;;13.48;54.18
84049;BME280;74136;51.684;7.862;2024-03-02T11:52:33;99516.78;;;13.54;53.53
84049;BME280;74136;51.684;7.862;2024-03-02T11:55:01;99515.38;;;13.61;53.56
84049;BME280;74136;51.684;7.862;2024-03-02T11:57:29;99520.34;;;13.69;53.50
84049;BME280;74136;51.684;7.862;2024-03-02T11:59:57;99516.44;;;13.70;52.82
84049;BME280;74136;51.684;7.862;2024-03-02T12:02:25;99507.03;;;13.71;53.13
84049;BME280;74136;51.684;7.862;2024-03-02T12:04:51;99507.03;;;13.76;53.33
84049;BME280;74136;51.684;7.862;2024-03-02T12:07:19;99518.03;;;13.87;54.11
84049;BME280;74136;51.684;7.862;2024-03-02T12:09:47;99508.28;;;13.94;53.63
84049;BME280;74136;51.684;7.862;2024-03-02T12:12:13;99514.38;;;13.96;52.99
84049;BME280;74136;51.684;7.862;2024-03-02T12:14:50;99511.63;;;13.96;52.30
84049;BME280;74136;51.684;7.862;2024-03-02T12:17:16;99506.91;;;14.02;52.44
84049;BME280;74136;51.684;7.862;2024-03-02T12:19:43;99508.28;;;13.99;52.11
84049;BME280;74136;51.684;7.862;2024-03-02T12:22:10;99506.28;;;14.10;52.53
84049;BME280;74136;51.684;7.862;2024-03-02T12:24:36;99491.91;;;14.08;51.91
84049;BME280;74136;51.684;7.862;2024-03-02T12:27:05;99493.81;;;14.12;52.00
84049;BME280;74136;51.684;7.862;2024-03-02T12:29:31;99496.59;;;14.12;51.71
84049;BME280;74136;51.684;7.862;2024-03-02T12:31:59;99496.53;;;14.23;53.12
84049;BME280;74136;51.684;7.862;2024-03-02T12:34:26;99498.38;;;14.32;52.84
84049;BME280;74136;51.684;7.862;2024-03-02T12:36:52;99493.13;;;14.31;51.06
84049;BME280;74136;51.684;7.862;2024-03-02T12:39:19;99489.19;;;14.37;52.16
84049;BME280;74136;51.684;7.862;2024-03-02T12:41:46;99471.84;;;14.26;49.86
84049;BME280;74136;51.684;7.862;2024-03-02T12:44:12;99488.16;;;14.28;51.56
84049;BME280;74136;51.684;7.862;2024-03-02T12:46:39;99477.34;;;14.31;51.48
84049;BME280;74136;51.684;7.862;2024-03-02T12:49:08;99487.56;;;14.36;51.98
84049;BME280;74136;51.684;7.862;2024-03-02T12:51:36;99488.38;;;14.36;51.21
84049;BME280;74136;51.684;7.862;2024-03-02T12:54:03;99488.84;;;14.53;52.27
84049;BME280;74136;51.684;7.862;2024-03-02T12:56:31;99484.53;;;14.71;52.19
84049;BME280;74136;51.684;7.862;2024-03-02T12:58:59;99476.72;;;14.78;50.86
84049;BME280;74136;51.684;7.862;2024-03-02T13:01:25;99478.31;;;14.84;51.70
84049;BME280;74136;51.684;7.862;2024-03-02T13:03:55;99476.59;;;14.60;50.95
84049;BME280;74136;51.684;7.862;2024-03-02T13:06:23;99469.41;;;14.58;50.93
84049;BME280;74136;51.684;7.862;2024-03-02T13:08:50;99472.13;;;14.64;51.78
84049;BME280;74136;51.684;7.862;2024-03-02T13:11:16;99462.97;;;14.68;51.71
84049;BME280;74136;51.684;7.862;2024-03-02T13:13:43;99456.59;;;14.68;51.46
84049;BME280;74136;51.684;7.862;2024-03-02T13:16:09;99460.91;;;14.50;51.49
84049;BME280;74136;51.684;7.862;2024-03-02T13:18:38;99462.56;;;14.51;52.46
84049;BME280;74136;51.684;7.862;2024-03-02T13:21:04;99458.81;;;14.32;52.03
84049;BME280;74136;51.684;7.862;2024-03-02T13:23:30;99458.38;;;14.14;52.45